Avon, Ohio
Current Conditions -  °F | °C
As of 11:51 PM on Friday 28 Nov 2014 (Local Time) from KCLE Reporting Station
Overcast Overcast  
Wind Chill: 19°   Ceiling: 7000
Heat Index: 29°   Visibility: 10mi
Dew Point: 19°   Wind: 12mph
Humidity: 67%   Direction: 180°S
Pressure: 30.14"   Gusts: NA
Location:  41.47°N, 82.02°W
Report Text: KCLE 290451Z 18010KT 10SM OVC070 M02/M07 A3014 RMK AO2 SLP217 T10171072 410171067 $
Loading
Personal Weather Stations






























Interactive Weather Map New forecast layout! Learn more

10-Day Weather Forecast

Advertisements
Track Severe Weather on mobile